sensor_id;sensor_type;location;lat;lon;timestamp;P1;durP1;ratioP1;P2;durP2;ratioP2
55292;SDS011;41157;53.560;10.098;2024-01-30T00:01:09;6.13;;;4.13;;
55292;SDS011;41157;53.560;10.098;2024-01-30T00:03:36;6.10;;;4.40;;
55292;SDS011;41157;53.560;10.098;2024-01-30T00:06:03;5.03;;;4.10;;
55292;SDS011;41157;53.560;10.098;2024-01-30T00:08:30;8.77;;;4.77;;
55292;SDS011;41157;53.560;10.098;2024-01-30T00:10:58;7.37;;;3.87;;
55292;SDS011;41157;53.560;10.098;2024-01-30T00:13:25;6.27;;;3.90;;
55292;SDS011;41157;53.560;10.098;2024-01-30T00:15:52;6.63;;;4.10;;
55292;SDS011;41157;53.560;10.098;2024-01-30T00:18:19;7.27;;;4.23;;
55292;SDS011;41157;53.560;10.098;2024-01-30T00:20:46;6.47;;;3.60;;
55292;SDS011;41157;53.560;10.098;2024-01-30T00:23:13;6.63;;;4.50;;
55292;SDS011;41157;53.560;10.098;2024-01-30T00:25:40;7.33;;;3.70;;
55292;SDS011;41157;53.560;10.098;2024-01-30T00:28:09;5.87;;;4.03;;
55292;SDS011;41157;53.560;10.098;2024-01-30T00:30:36;7.57;;;4.23;;
55292;SDS011;41157;53.560;10.098;2024-01-30T00:33:03;9.33;;;4.07;;
55292;SDS011;41157;53.560;10.098;2024-01-30T00:35:30;5.53;;;3.90;;
55292;SDS011;41157;53.560;10.098;2024-01-30T00:37:57;6.27;;;4.00;;
55292;SDS011;41157;53.560;10.098;2024-01-30T00:40:24;10.50;;;4.60;;
55292;SDS011;41157;53.560;10.098;2024-01-30T00:42:51;9.00;;;4.33;;
55292;SDS011;41157;53.560;10.098;2024-01-30T00:45:19;7.53;;;4.57;;
55292;SDS011;41157;53.560;10.098;2024-01-30T00:47:46;6.93;;;3.93;;
55292;SDS011;41157;53.560;10.098;2024-01-30T00:50:14;5.50;;;3.90;;
55292;SDS011;41157;53.560;10.098;2024-01-30T00:52:40;5.57;;;3.83;;
55292;SDS011;41157;53.560;10.098;2024-01-30T00:55:10;6.90;;;4.47;;
55292;SDS011;41157;53.560;10.098;2024-01-30T00:57:37;8.00;;;4.43;;
55292;SDS011;41157;53.560;10.098;2024-01-30T01:00:04;6.43;;;4.13;;
55292;SDS011;41157;53.560;10.098;2024-01-30T01:02:35;6.30;;;4.20;;
55292;SDS011;41157;53.560;10.098;2024-01-30T01:05:02;10.13;;;4.30;;
55292;SDS011;41157;53.560;10.098;2024-01-30T01:07:29;7.33;;;4.30;;
55292;SDS011;41157;53.560;10.098;2024-01-30T01:09:56;7.77;;;4.53;;
55292;SDS011;41157;53.560;10.098;2024-01-30T01:12:23;6.37;;;4.03;;
55292;SDS011;41157;53.560;10.098;2024-01-30T01:14:50;5.53;;;4.00;;
55292;SDS011;41157;53.560;10.098;2024-01-30T01:17:17;6.07;;;4.00;;
55292;SDS011;41157;53.560;10.098;2024-01-30T01:19:46;6.80;;;4.17;;
55292;SDS011;41157;53.560;10.098;2024-01-30T01:22:13;8.27;;;4.20;;
55292;SDS011;41157;53.560;10.098;2024-01-30T01:24:40;10.67;;;4.33;;
55292;SDS011;41157;53.560;10.098;2024-01-30T01:27:07;5.77;;;3.97;;
55292;SDS011;41157;53.560;10.098;2024-01-30T01:29:33;6.17;;;3.83;;
55292;SDS011;41157;53.560;10.098;2024-01-30T01:32:00;7.93;;;4.20;;
55292;SDS011;41157;53.560;10.098;2024-01-30T01:34:27;8.27;;;4.07;;
55292;SDS011;41157;53.560;10.098;2024-01-30T01:36:56;6.53;;;4.20;;
55292;SDS011;41157;53.560;10.098;2024-01-30T01:39:23;7.33;;;4.00;;
55292;SDS011;41157;53.560;10.098;2024-01-30T01:41:50;8.13;;;4.50;;
55292;SDS011;41157;53.560;10.098;2024-01-30T01:44:17;6.83;;;4.23;;
55292;SDS011;41157;53.560;10.098;2024-01-30T01:46:44;7.27;;;4.17;;
55292;SDS011;41157;53.560;10.098;2024-01-30T01:49:11;6.80;;;4.50;;
55292;SDS011;41157;53.560;10.098;2024-01-30T01:51:38;6.53;;;4.30;;
55292;SDS011;41157;53.560;10.098;2024-01-30T01:54:07;8.70;;;4.27;;
55292;SDS011;41157;53.560;10.098;2024-01-30T01:56:34;5.80;;;4.30;;
55292;SDS011;41157;53.560;10.098;2024-01-30T01:59:04;8.60;;;5.00;;
55292;SDS011;41157;53.560;10.098;2024-01-30T02:01:32;7.87;;;4.80;;
55292;SDS011;41157;53.560;10.098;2024-01-30T02:04:00;5.73;;;4.43;;
55292;SDS011;41157;53.560;10.098;2024-01-30T02:06:27;8.10;;;4.53;;
55292;SDS011;41157;53.560;10.098;2024-01-30T02:08:54;6.33;;;4.40;;
55292;SDS011;41157;53.560;10.098;2024-01-30T02:11:22;9.10;;;4.50;;
55292;SDS011;41157;53.560;10.098;2024-01-30T02:13:49;8.70;;;4.10;;
55292;SDS011;41157;53.560;10.098;2024-01-30T02:16:16;6.30;;;4.40;;
55292;SDS011;41157;53.560;10.098;2024-01-30T02:18:43;7.27;;;4.33;;
55292;SDS011;41157;53.560;10.098;2024-01-30T02:21:14;5.37;;;3.80;;
55292;SDS011;41157;53.560;10.098;2024-01-30T02:23:41;11.70;;;4.53;;
55292;SDS011;41157;53.560;10.098;2024-01-30T02:26:09;7.57;;;4.57;;
55292;SDS011;41157;53.560;10.098;2024-01-30T02:28:37;6.37;;;4.70;;
55292;SDS011;41157;53.560;10.098;2024-01-30T02:31:04;11.83;;;4.70;;
55292;SDS011;41157;53.560;10.098;2024-01-30T02:33:31;7.77;;;4.60;;
55292;SDS011;41157;53.560;10.098;2024-01-30T02:35:58;7.63;;;4.53;;
55292;SDS011;41157;53.560;10.098;2024-01-30T02:38:26;7.77;;;4.80;;
55292;SDS011;41157;53.560;10.098;2024-01-30T02:40:54;7.97;;;4.33;;
55292;SDS011;41157;53.560;10.098;2024-01-30T02:43:21;8.70;;;4.80;;
55292;SDS011;41157;53.560;10.098;2024-01-30T02:45:48;10.07;;;4.60;;
55292;SDS011;41157;53.560;10.098;2024-01-30T02:48:15;8.50;;;4.53;;
55292;SDS011;41157;53.560;10.098;2024-01-30T02:50:42;7.57;;;4.20;;
55292;SDS011;41157;53.560;10.098;2024-01-30T02:53:10;9.03;;;4.87;;
55292;SDS011;41157;53.560;10.098;2024-01-30T02:55:39;7.90;;;4.90;;
55292;SDS011;41157;53.560;10.098;2024-01-30T02:58:06;8.03;;;4.77;;
55292;SDS011;41157;53.560;10.098;2024-01-30T03:00:33;8.83;;;4.80;;
55292;SDS011;41157;53.560;10.098;2024-01-30T03:03:00;7.90;;;4.97;;
55292;SDS011;41157;53.560;10.098;2024-01-30T03:05:27;7.73;;;4.67;;
55292;SDS011;41157;53.560;10.098;2024-01-30T03:07:54;6.53;;;4.50;;
55292;SDS011;41157;53.560;10.098;2024-01-30T03:10:21;8.97;;;5.10;;
55292;SDS011;41157;53.560;10.098;2024-01-30T03:12:49;8.57;;;5.07;;
55292;SDS011;41157;53.560;10.098;2024-01-30T03:15:16;7.40;;;4.30;;
55292;SDS011;41157;53.560;10.098;2024-01-30T03:17:43;9.13;;;5.63;;
55292;SDS011;41157;53.560;10.098;2024-01-30T03:20:10;8.03;;;5.10;;
55292;SDS011;41157;53.560;10.098;2024-01-30T03:22:37;11.40;;;5.27;;
55292;SDS011;41157;53.560;10.098;2024-01-30T03:25:05;15.47;;;4.90;;
55292;SDS011;41157;53.560;10.098;2024-01-30T03:27:32;10.80;;;4.63;;
55292;SDS011;41157;53.560;10.098;2024-01-30T03:30:00;7.10;;;5.33;;
55292;SDS011;41157;53.560;10.098;2024-01-30T03:32:27;10.77;;;4.97;;
55292;SDS011;41157;53.560;10.098;2024-01-30T03:34:54;6.90;;;5.00;;
55292;SDS011;41157;53.560;10.098;2024-01-30T03:37:21;9.30;;;4.70;;
55292;SDS011;41157;53.560;10.098;2024-01-30T03:39:48;7.70;;;4.73;;
55292;SDS011;41157;53.560;10.098;2024-01-30T03:42:15;8.73;;;5.03;;
55292;SDS011;41157;53.560;10.098;2024-01-30T03:44:45;8.60;;;5.53;;
55292;SDS011;41157;53.560;10.098;2024-01-30T03:47:13;9.00;;;4.80;;
55292;SDS011;41157;53.560;10.098;2024-01-30T03:49:40;7.60;;;5.03;;
55292;SDS011;41157;53.560;10.098;2024-01-30T03:52:07;8.03;;;5.07;;
55292;SDS011;41157;53.560;10.098;2024-01-30T03:54:34;9.73;;;5.73;;
55292;SDS011;41157;53.560;10.098;2024-01-30T03:57:01;8.00;;;5.00;;
55292;SDS011;41157;53.560;10.098;2024-01-30T03:59:28;14.47;;;5.77;;
55292;SDS011;41157;53.560;10.098;2024-01-30T04:01:55;11.33;;;5.47;;
55292;SDS011;41157;53.560;10.098;2024-01-30T04:04:23;7.27;;;5.33;;
55292;SDS011;41157;53.560;10.098;2024-01-30T04:06:50;13.37;;;5.20;;
55292;SDS011;41157;53.560;10.098;2024-01-30T04:09:17;11.10;;;5.13;;
55292;SDS011;41157;53.560;10.098;2024-01-30T04:11:44;9.13;;;5.67;;
55292;SDS011;41157;53.560;10.098;2024-01-30T04:14:11;6.60;;;4.90;;
55292;SDS011;41157;53.560;10.098;2024-01-30T04:16:38;8.57;;;5.30;;
55292;SDS011;41157;53.560;10.098;2024-01-30T04:19:05;10.77;;;5.63;;
55292;SDS011;41157;53.560;10.098;2024-01-30T04:21:33;6.77;;;5.47;;
55292;SDS011;41157;53.560;10.098;2024-01-30T04:24:00;8.20;;;5.20;;
55292;SDS011;41157;53.560;10.098;2024-01-30T04:26:27;9.27;;;5.77;;
55292;SDS011;41157;53.560;10.098;2024-01-30T04:28:54;9.43;;;5.27;;
55292;SDS011;41157;53.560;10.098;2024-01-30T04:31:21;13.40;;;5.30;;
55292;SDS011;41157;53.560;10.098;2024-01-30T04:33:48;7.50;;;5.70;;
55292;SDS011;41157;53.560;10.098;2024-01-30T04:36:15;8.37;;;4.90;;
55292;SDS011;41157;53.560;10.098;2024-01-30T04:38:43;10.70;;;5.23;;
55292;SDS011;41157;53.560;10.098;2024-01-30T04:41:10;9.07;;;5.63;;
55292;SDS011;41157;53.560;10.098;2024-01-30T04:43:37;8.17;;;5.70;;
55292;SDS011;41157;53.560;10.098;2024-01-30T04:46:04;9.10;;;6.37;;
55292;SDS011;41157;53.560;10.098;2024-01-30T04:48:31;9.63;;;5.43;;
55292;SDS011;41157;53.560;10.098;2024-01-30T04:50:58;10.50;;;5.87;;
55292;SDS011;41157;53.560;10.098;2024-01-30T04:53:27;8.17;;;5.77;;
55292;SDS011;41157;53.560;10.098;2024-01-30T04:55:56;8.93;;;5.53;;
55292;SDS011;41157;53.560;10.098;2024-01-30T04:58:23;13.93;;;5.67;;
55292;SDS011;41157;53.560;10.098;2024-01-30T05:00:50;14.00;;;6.20;;
55292;SDS011;41157;53.560;10.098;2024-01-30T05:03:17;13.13;;;6.53;;
55292;SDS011;41157;53.560;10.098;2024-01-30T05:05:44;9.53;;;5.77;;
55292;SDS011;41157;53.560;10.098;2024-01-30T05:08:11;9.07;;;5.43;;
55292;SDS011;41157;53.560;10.098;2024-01-30T05:10:38;9.67;;;6.03;;
55292;SDS011;41157;53.560;10.098;2024-01-30T05:13:06;10.40;;;5.87;;
55292;SDS011;41157;53.560;10.098;2024-01-30T05:15:33;13.57;;;5.80;;
55292;SDS011;41157;53.560;10.098;2024-01-30T05:18:00;10.20;;;5.80;;
55292;SDS011;41157;53.560;10.098;2024-01-30T05:20:27;12.27;;;6.07;;
55292;SDS011;41157;53.560;10.098;2024-01-30T05:22:54;10.10;;;5.37;;
55292;SDS011;41157;53.560;10.098;2024-01-30T05:25:21;8.93;;;6.33;;
55292;SDS011;41157;53.560;10.098;2024-01-30T05:27:49;9.57;;;6.13;;
55292;SDS011;41157;53.560;10.098;2024-01-30T05:30:17;8.23;;;5.60;;
55292;SDS011;41157;53.560;10.098;2024-01-30T05:32:44;8.43;;;5.63;;
55292;SDS011;41157;53.560;10.098;2024-01-30T05:35:11;7.80;;;5.40;;
55292;SDS011;41157;53.560;10.098;2024-01-30T05:37:38;10.13;;;5.87;;
55292;SDS011;41157;53.560;10.098;2024-01-30T05:40:06;8.67;;;5.93;;
55292;SDS011;41157;53.560;10.098;2024-01-30T05:42:34;9.17;;;6.23;;
55292;SDS011;41157;53.560;10.098;2024-01-30T05:45:00;9.63;;;5.77;;
55292;SDS011;41157;53.560;10.098;2024-01-30T05:47:29;9.40;;;5.67;;
55292;SDS011;41157;53.560;10.098;2024-01-30T05:49:56;10.57;;;5.73;;
55292;SDS011;41157;53.560;10.098;2024-01-30T05:52:23;10.80;;;6.03;;
55292;SDS011;41157;53.560;10.098;2024-01-30T05:54:50;8.80;;;6.00;;
55292;SDS011;41157;53.560;10.098;2024-01-30T05:57:17;12.23;;;6.80;;
55292;SDS011;41157;53.560;10.098;2024-01-30T05:59:44;9.00;;;6.33;;
55292;SDS011;41157;53.560;10.098;2024-01-30T06:02:12;10.97;;;6.87;;
55292;SDS011;41157;53.560;10.098;2024-01-30T06:04:41;11.00;;;6.50;;
55292;SDS011;41157;53.560;10.098;2024-01-30T06:07:09;15.03;;;5.97;;
55292;SDS011;41157;53.560;10.098;2024-01-30T06:09:36;13.10;;;6.47;;
55292;SDS011;41157;53.560;10.098;2024-01-30T06:12:04;9.47;;;6.07;;
55292;SDS011;41157;53.560;10.098;2024-01-30T06:14:32;12.23;;;6.43;;
55292;SDS011;41157;53.560;10.098;2024-01-30T06:16:59;11.13;;;6.40;;
55292;SDS011;41157;53.560;10.098;2024-01-30T06:19:26;12.30;;;6.63;;
55292;SDS011;41157;53.560;10.098;2024-01-30T06:21:54;16.13;;;7.67;;
55292;SDS011;41157;53.560;10.098;2024-01-30T06:24:21;10.20;;;6.43;;
55292;SDS011;41157;53.560;10.098;2024-01-30T06:26:48;15.40;;;7.20;;
55292;SDS011;41157;53.560;10.098;2024-01-30T06:29:15;17.83;;;7.00;;
55292;SDS011;41157;53.560;10.098;2024-01-30T06:31:42;12.10;;;6.93;;
55292;SDS011;41157;53.560;10.098;2024-01-30T06:34:09;13.53;;;7.77;;
55292;SDS011;41157;53.560;10.098;2024-01-30T06:36:37;14.70;;;7.30;;
55292;SDS011;41157;53.560;10.098;2024-01-30T06:39:05;13.07;;;6.50;;
55292;SDS011;41157;53.560;10.098;2024-01-30T06:41:32;11.90;;;7.10;;
55292;SDS011;41157;53.560;10.098;2024-01-30T06:43:59;13.87;;;7.60;;
55292;SDS011;41157;53.560;10.098;2024-01-30T06:46:26;10.53;;;6.63;;
55292;SDS011;41157;53.560;10.098;2024-01-30T06:48:53;12.03;;;6.90;;
55292;SDS011;41157;53.560;10.098;2024-01-30T06:51:20;14.13;;;7.10;;
55292;SDS011;41157;53.560;10.098;2024-01-30T06:53:47;14.03;;;7.27;;
55292;SDS011;41157;53.560;10.098;2024-01-30T06:56:16;10.83;;;6.80;;
55292;SDS011;41157;53.560;10.098;2024-01-30T06:58:45;12.20;;;6.53;;
55292;SDS011;41157;53.560;10.098;2024-01-30T07:01:12;12.37;;;6.83;;
55292;SDS011;41157;53.560;10.098;2024-01-30T07:03:39;15.77;;;7.20;;
55292;SDS011;41157;53.560;10.098;2024-01-30T07:06:07;9.97;;;6.77;;
55292;SDS011;41157;53.560;10.098;2024-01-30T07:08:34;13.40;;;7.20;;
55292;SDS011;41157;53.560;10.098;2024-01-30T07:11:02;12.07;;;6.57;;
55292;SDS011;41157;53.560;10.098;2024-01-30T07:13:30;9.43;;;6.70;;
55292;SDS011;41157;53.560;10.098;2024-01-30T07:15:57;9.63;;;6.47;;
55292;SDS011;41157;53.560;10.098;2024-01-30T07:18:24;10.07;;;6.40;;
55292;SDS011;41157;53.560;10.098;2024-01-30T07:20:51;11.93;;;7.10;;
55292;SDS011;41157;53.560;10.098;2024-01-30T07:23:18;12.90;;;7.10;;
55292;SDS011;41157;53.560;10.098;2024-01-30T07:25:45;11.13;;;6.50;;
55292;SDS011;41157;53.560;10.098;2024-01-30T07:28:13;10.97;;;7.03;;
55292;SDS011;41157;53.560;10.098;2024-01-30T07:30:43;10.60;;;7.27;;
55292;SDS011;41157;53.560;10.098;2024-01-30T07:33:10;13.77;;;6.90;;
55292;SDS011;41157;53.560;10.098;2024-01-30T07:35:37;13.73;;;7.10;;
55292;SDS011;41157;53.560;10.098;2024-01-30T07:38:04;12.63;;;7.17;;
55292;SDS011;41157;53.560;10.098;2024-01-30T07:40:31;12.23;;;7.83;;
55292;SDS011;41157;53.560;10.098;2024-01-30T07:42:58;11.77;;;6.90;;
55292;SDS011;41157;53.560;10.098;2024-01-30T07:45:25;13.23;;;6.43;;
55292;SDS011;41157;53.560;10.098;2024-01-30T07:47:58;11.23;;;7.43;;
55292;SDS011;41157;53.560;10.098;2024-01-30T07:50:26;13.03;;;7.30;;
55292;SDS011;41157;53.560;10.098;2024-01-30T07:52:53;10.87;;;6.63;;
55292;SDS011;41157;53.560;10.098;2024-01-30T07:55:20;16.07;;;7.17;;
55292;SDS011;41157;53.560;10.098;2024-01-30T07:57:49;11.87;;;7.53;;
55292;SDS011;41157;53.560;10.098;2024-01-30T08:00:17;16.20;;;7.47;;
55292;SDS011;41157;53.560;10.098;2024-01-30T08:02:44;13.27;;;7.30;;
55292;SDS011;41157;53.560;10.098;2024-01-30T08:05:13;13.67;;;7.93;;
55292;SDS011;41157;53.560;10.098;2024-01-30T08:07:40;11.23;;;7.07;;
55292;SDS011;41157;53.560;10.098;2024-01-30T08:10:07;14.67;;;7.87;;
55292;SDS011;41157;53.560;10.098;2024-01-30T08:12:35;11.33;;;7.07;;
55292;SDS011;41157;53.560;10.098;2024-01-30T08:15:02;12.50;;;7.53;;
55292;SDS011;41157;53.560;10.098;2024-01-30T08:17:29;17.57;;;7.23;;
55292;SDS011;41157;53.560;10.098;2024-01-30T08:19:56;12.17;;;7.53;;
55292;SDS011;41157;53.560;10.098;2024-01-30T08:22:24;12.13;;;7.47;;
55292;SDS011;41157;53.560;10.098;2024-01-30T08:24:51;13.60;;;7.77;;
55292;SDS011;41157;53.560;10.098;2024-01-30T08:27:19;12.90;;;7.50;;
55292;SDS011;41157;53.560;10.098;2024-01-30T08:29:46;12.00;;;7.33;;
55292;SDS011;41157;53.560;10.098;2024-01-30T08:32:12;13.10;;;7.70;;
55292;SDS011;41157;53.560;10.098;2024-01-30T08:34:39;18.73;;;7.53;;
55292;SDS011;41157;53.560;10.098;2024-01-30T08:37:06;11.50;;;6.67;;
55292;SDS011;41157;53.560;10.098;2024-01-30T08:39:34;10.27;;;7.43;;
55292;SDS011;41157;53.560;10.098;2024-01-30T08:42:01;11.37;;;7.33;;
55292;SDS011;41157;53.560;10.098;2024-01-30T08:44:28;17.43;;;8.53;;
55292;SDS011;41157;53.560;10.098;2024-01-30T08:46:55;14.03;;;7.53;;
55292;SDS011;41157;53.560;10.098;2024-01-30T08:49:22;11.57;;;7.77;;
55292;SDS011;41157;53.560;10.098;2024-01-30T08:51:49;13.23;;;8.20;;
55292;SDS011;41157;53.560;10.098;2024-01-30T08:54:16;11.77;;;7.43;;
55292;SDS011;41157;53.560;10.098;2024-01-30T08:56:45;12.37;;;7.50;;
55292;SDS011;41157;53.560;10.098;2024-01-30T08:59:12;13.20;;;7.80;;
55292;SDS011;41157;53.560;10.098;2024-01-30T09:01:39;12.47;;;7.33;;
55292;SDS011;41157;53.560;10.098;2024-01-30T09:04:06;16.53;;;7.43;;
55292;SDS011;41157;53.560;10.098;2024-01-30T09:06:32;9.33;;;6.47;;
55292;SDS011;41157;53.560;10.098;2024-01-30T09:08:59;14.10;;;7.73;;
55292;SDS011;41157;53.560;10.098;2024-01-30T09:11:26;9.90;;;7.07;;
55292;SDS011;41157;53.560;10.098;2024-01-30T09:13:55;12.37;;;7.50;;
55292;SDS011;41157;53.560;10.098;2024-01-30T09:16:22;12.73;;;7.37;;
55292;SDS011;41157;53.560;10.098;2024-01-30T09:18:49;12.47;;;7.60;;
55292;SDS011;41157;53.560;10.098;2024-01-30T09:21:16;16.33;;;7.20;;
55292;SDS011;41157;53.560;10.098;2024-01-30T09:23:43;11.87;;;7.70;;
55292;SDS011;41157;53.560;10.098;2024-01-30T09:26:10;12.40;;;7.30;;
55292;SDS011;41157;53.560;10.098;2024-01-30T09:28:37;11.17;;;6.90;;
55292;SDS011;41157;53.560;10.098;2024-01-30T09:31:10;13.93;;;7.03;;
55292;SDS011;41157;53.560;10.098;2024-01-30T09:33:37;15.60;;;7.50;;
55292;SDS011;41157;53.560;10.098;2024-01-30T09:36:05;12.23;;;7.43;;
55292;SDS011;41157;53.560;10.098;2024-01-30T09:38:32;15.13;;;7.53;;
55292;SDS011;41157;53.560;10.098;2024-01-30T09:40:59;13.57;;;7.80;;
55292;SDS011;41157;53.560;10.098;2024-01-30T09:43:29;11.97;;;7.23;;
55292;SDS011;41157;53.560;10.098;2024-01-30T09:46:00;14.47;;;7.60;;
55292;SDS011;41157;53.560;10.098;2024-01-30T09:48:30;15.07;;;7.93;;
55292;SDS011;41157;53.560;10.098;2024-01-30T09:50:57;10.77;;;6.83;;
55292;SDS011;41157;53.560;10.098;2024-01-30T09:53:24;15.40;;;7.57;;
55292;SDS011;41157;53.560;10.098;2024-01-30T09:58:33;11.37;;;7.70;;
55292;SDS011;41157;53.560;10.098;2024-01-30T10:01:00;18.40;;;8.67;;
55292;SDS011;41157;53.560;10.098;2024-01-30T10:03:27;12.33;;;7.50;;
55292;SDS011;41157;53.560;10.098;2024-01-30T10:05:56;13.40;;;7.37;;
55292;SDS011;41157;53.560;10.098;2024-01-30T10:08:23;16.20;;;7.77;;
55292;SDS011;41157;53.560;10.098;2024-01-30T10:11:03;14.10;;;8.07;;
55292;SDS011;41157;53.560;10.098;2024-01-30T10:13:31;11.60;;;7.57;;
55292;SDS011;41157;53.560;10.098;2024-01-30T10:15:58;11.17;;;7.13;;
55292;SDS011;41157;53.560;10.098;2024-01-30T10:18:28;12.73;;;7.50;;
55292;SDS011;41157;53.560;10.098;2024-01-30T10:20:56;12.30;;;7.17;;
55292;SDS011;41157;53.560;10.098;2024-01-30T10:23:23;12.17;;;6.83;;
55292;SDS011;41157;53.560;10.098;2024-01-30T10:25:50;13.03;;;7.87;;
55292;SDS011;41157;53.560;10.098;2024-01-30T10:28:17;11.73;;;7.17;;
55292;SDS011;41157;53.560;10.098;2024-01-30T10:30:45;14.87;;;7.23;;
55292;SDS011;41157;53.560;10.098;2024-01-30T10:33:12;8.50;;;6.40;;
55292;SDS011;41157;53.560;10.098;2024-01-30T10:35:39;9.37;;;6.60;;
55292;SDS011;41157;53.560;10.098;2024-01-30T10:38:07;11.47;;;7.20;;
55292;SDS011;41157;53.560;10.098;2024-01-30T10:40:36;10.77;;;6.97;;
55292;SDS011;41157;53.560;10.098;2024-01-30T10:43:04;10.93;;;6.83;;
55292;SDS011;41157;53.560;10.098;2024-01-30T10:45:31;13.20;;;6.70;;
55292;SDS011;41157;53.560;10.098;2024-01-30T10:47:58;11.03;;;6.47;;
55292;SDS011;41157;53.560;10.098;2024-01-30T10:50:27;12.47;;;6.80;;
55292;SDS011;41157;53.560;10.098;2024-01-30T10:52:55;11.13;;;7.07;;
55292;SDS011;41157;53.560;10.098;2024-01-30T10:55:24;12.93;;;7.10;;
55292;SDS011;41157;53.560;10.098;2024-01-30T10:57:53;12.70;;;6.87;;
55292;SDS011;41157;53.560;10.098;2024-01-30T11:00:20;15.47;;;7.23;;
55292;SDS011;41157;53.560;10.098;2024-01-30T11:02:49;10.67;;;6.70;;
55292;SDS011;41157;53.560;10.098;2024-01-30T11:05:23;8.33;;;6.53;;
55292;SDS011;41157;53.560;10.098;2024-01-30T11:07:51;9.57;;;6.20;;
55292;SDS011;41157;53.560;10.098;2024-01-30T11:10:18;11.20;;;7.40;;
55292;SDS011;41157;53.560;10.098;2024-01-30T11:12:46;13.20;;;6.67;;
55292;SDS011;41157;53.560;10.098;2024-01-30T11:15:15;9.80;;;7.10;;
55292;SDS011;41157;53.560;10.098;2024-01-30T11:17:43;10.20;;;6.27;;
55292;SDS011;41157;53.560;10.098;2024-01-30T11:20:11;14.00;;;7.00;;
55292;SDS011;41157;53.560;10.098;2024-01-30T11:22:41;11.20;;;6.67;;
55292;SDS011;41157;53.560;10.098;2024-01-30T11:25:10;11.00;;;6.87;;
55292;SDS011;41157;53.560;10.098;2024-01-30T11:27:38;9.43;;;6.50;;
55292;SDS011;41157;53.560;10.098;2024-01-30T11:30:07;12.30;;;6.90;;
55292;SDS011;41157;53.560;10.098;2024-01-30T11:32:34;11.67;;;7.10;;
55292;SDS011;41157;53.560;10.098;2024-01-30T11:35:03;8.50;;;6.33;;
55292;SDS011;41157;53.560;10.098;2024-01-30T11:37:31;12.53;;;6.77;;
55292;SDS011;41157;53.560;10.098;2024-01-30T11:39:58;13.07;;;7.00;;
55292;SDS011;41157;53.560;10.098;2024-01-30T11:42:25;9.17;;;6.63;;
55292;SDS011;41157;53.560;10.098;2024-01-30T11:44:53;14.90;;;6.33;;
55292;SDS011;41157;53.560;10.098;2024-01-30T11:47:21;11.40;;;6.30;;
55292;SDS011;41157;53.560;10.098;2024-01-30T11:49:49;9.70;;;6.77;;
55292;SDS011;41157;53.560;10.098;2024-01-30T11:52:16;10.43;;;6.70;;
55292;SDS011;41157;53.560;10.098;2024-01-30T11:54:43;12.70;;;6.70;;
55292;SDS011;41157;53.560;10.098;2024-01-30T11:57:10;11.07;;;6.70;;
55292;SDS011;41157;53.560;10.098;2024-01-30T11:59:37;11.70;;;6.77;;
55292;SDS011;41157;53.560;10.098;2024-01-30T12:02:04;9.47;;;6.80;;
55292;SDS011;41157;53.560;10.098;2024-01-30T12:04:32;11.07;;;7.10;;
55292;SDS011;41157;53.560;10.098;2024-01-30T12:06:59;11.40;;;6.67;;
55292;SDS011;41157;53.560;10.098;2024-01-30T12:09:26;11.53;;;7.13;;
55292;SDS011;41157;53.560;10.098;2024-01-30T12:11:53;14.13;;;7.43;;
55292;SDS011;41157;53.560;10.098;2024-01-30T12:14:22;11.13;;;6.70;;
55292;SDS011;41157;53.560;10.098;2024-01-30T12:16:50;16.07;;;7.07;;
55292;SDS011;41157;53.560;10.098;2024-01-30T12:19:23;10.50;;;6.40;;
55292;SDS011;41157;53.560;10.098;2024-01-30T12:21:57;10.87;;;7.00;;
55292;SDS011;41157;53.560;10.098;2024-01-30T12:24:25;13.30;;;7.30;;
55292;SDS011;41157;53.560;10.098;2024-01-30T12:26:52;16.63;;;7.87;;
55292;SDS011;41157;53.560;10.098;2024-01-30T12:29:20;13.10;;;6.97;;
55292;SDS011;41157;53.560;10.098;2024-01-30T12:31:47;10.33;;;6.93;;
55292;SDS011;41157;53.560;10.098;2024-01-30T12:34:14;11.40;;;6.87;;
55292;SDS011;41157;53.560;10.098;2024-01-30T12:36:42;12.17;;;6.87;;
55292;SDS011;41157;53.560;10.098;2024-01-30T12:39:12;13.90;;;7.27;;
55292;SDS011;41157;53.560;10.098;2024-01-30T12:41:39;11.53;;;6.83;;
55292;SDS011;41157;53.560;10.098;2024-01-30T12:44:06;13.43;;;7.27;;
55292;SDS011;41157;53.560;10.098;2024-01-30T12:46:34;11.13;;;6.43;;
55292;SDS011;41157;53.560;10.098;2024-01-30T12:49:01;14.30;;;6.50;;
55292;SDS011;41157;53.560;10.098;2024-01-30T12:51:28;11.33;;;6.60;;
55292;SDS011;41157;53.560;10.098;2024-01-30T12:53:55;9.43;;;6.63;;
55292;SDS011;41157;53.560;10.098;2024-01-30T12:56:23;11.80;;;6.57;;
55292;SDS011;41157;53.560;10.098;2024-01-30T12:58:50;11.20;;;6.47;;
55292;SDS011;41157;53.560;10.098;2024-01-30T13:01:17;15.37;;;7.30;;
55292;SDS011;41157;53.560;10.098;2024-01-30T13:03:44;15.43;;;6.90;;
55292;SDS011;41157;53.560;10.098;2024-01-30T13:06:11;10.67;;;6.30;;
55292;SDS011;41157;53.560;10.098;2024-01-30T13:08:38;9.43;;;6.73;;
55292;SDS011;41157;53.560;10.098;2024-01-30T13:11:05;13.10;;;6.33;;
55292;SDS011;41157;53.560;10.098;2024-01-30T13:13:33;11.53;;;6.77;;
55292;SDS011;41157;53.560;10.098;2024-01-30T13:16:01;11.70;;;6.73;;
55292;SDS011;41157;53.560;10.098;2024-01-30T13:18:29;10.07;;;6.53;;
55292;SDS011;41157;53.560;10.098;2024-01-30T13:20:56;14.20;;;6.87;;
55292;SDS011;41157;53.560;10.098;2024-01-30T13:23:23;11.27;;;6.23;;
55292;SDS011;41157;53.560;10.098;2024-01-30T13:25:50;12.47;;;6.67;;
55292;SDS011;41157;53.560;10.098;2024-01-30T13:28:18;13.27;;;6.03;;
55292;SDS011;41157;53.560;10.098;2024-01-30T13:30:47;12.27;;;6.40;;
55292;SDS011;41157;53.560;10.098;2024-01-30T13:33:14;13.23;;;6.97;;
55292;SDS011;41157;53.560;10.098;2024-01-30T13:35:41;11.53;;;6.73;;
55292;SDS011;41157;53.560;10.098;2024-01-30T13:38:08;9.60;;;6.20;;
55292;SDS011;41157;53.560;10.098;2024-01-30T13:40:35;10.63;;;5.60;;
55292;SDS011;41157;53.560;10.098;2024-01-30T13:43:02;11.57;;;6.73;;
55292;SDS011;41157;53.560;10.098;2024-01-30T13:45:29;12.17;;;6.40;;
55292;SDS011;41157;53.560;10.098;2024-01-30T13:47:57;12.50;;;6.80;;
55292;SDS011;41157;53.560;10.098;2024-01-30T13:50:24;15.40;;;7.23;;
55292;SDS011;41157;53.560;10.098;2024-01-30T13:52:51;12.80;;;6.57;;
55292;SDS011;41157;53.560;10.098;2024-01-30T13:55:18;10.70;;;7.07;;
55292;SDS011;41157;53.560;10.098;2024-01-30T13:57:45;13.50;;;6.43;;
55292;SDS011;41157;53.560;10.098;2024-01-30T14:00:12;16.30;;;6.63;;
55292;SDS011;41157;53.560;10.098;2024-01-30T14:02:41;13.00;;;6.10;;
55292;SDS011;41157;53.560;10.098;2024-01-30T14:05:09;14.57;;;6.70;;
55292;SDS011;41157;53.560;10.098;2024-01-30T14:07:36;20.63;;;6.20;;
55292;SDS011;41157;53.560;10.098;2024-01-30T14:10:04;9.10;;;6.23;;
55292;SDS011;41157;53.560;10.098;2024-01-30T14:12:31;12.20;;;6.03;;
55292;SDS011;41157;53.560;10.098;2024-01-30T14:14:58;13.50;;;6.13;;
55292;SDS011;41157;53.560;10.098;2024-01-30T14:17:25;14.37;;;6.27;;
55292;SDS011;41157;53.560;10.098;2024-01-30T14:19:52;10.87;;;6.17;;
55292;SDS011;41157;53.560;10.098;2024-01-30T14:22:20;13.27;;;6.33;;
55292;SDS011;41157;53.560;10.098;2024-01-30T14:24:47;9.77;;;5.90;;
55292;SDS011;41157;53.560;10.098;2024-01-30T14:27:14;10.90;;;6.13;;
55292;SDS011;41157;53.560;10.098;2024-01-30T14:29:41;7.33;;;5.40;;